Portada
METAR-TAF:

METAR-TAF

Aeroports :

Paraguaná, Veneçuela

latitud: 11-47N, longitud: 070-09W, altitud: 23 m

METAR: manca

Hora: 15:16 (19:16 UTC)

Pronòstic

L'informe es va fer fa 9 hores i 16 minuts, a les 10:00 UTC
Pronòstic vàlid del 18 a les 12 UTC al 19 a les 12 UTC
Vent 11 kt del Est/Sud-Est
Visibilitat 10 km o més
Evolucionant progressivament
l' 18 a les 12 UTC al 18 a les 16 UTC
Vent 7 kt del Sud
Visibilitat 10 km o més
Núvols disperses a una alçada de 1600 ft

TAF: SVJC 181000Z 1812/1912 12011KT 9999 SACT016 TX31/19Z TN23/08Z BECMG 1812/1816 17007KT 9999 SCT016

Observacions i pronòstics meteorològics de més de 4000 aeroports (METAR i TAF).

Les estacions disponibles són els punts grocs i vermells al mapa.

Posi el ratolí al punt desitjat per veure el nom de l'estació.

Feu clic per veure les observacions i els pronòstics meteorològics.

Per canviar el mapa: feu clic els botons verds amb una creu de color negre per apropar; al botó verd amb un guió per allunyar la imatge; o en les fletxes verdes per a mapes adjacents.


METAR-TAF: